Adaven, Nevada
Current Conditions -  °F | °C
As of 12:56 AM on Friday 28 Nov 2014 (Local Time) from KTPH Reporting Station
Clear Clear  
Wind Chill: 27°   Ceiling: Unl
Heat Index: 35°   Visibility: 10mi
Dew Point: 12°   Wind: 10mph
Humidity: 39%   Direction: 360°N
Pressure: 30.21"   Gusts: NA
Location:  38.13°N, 115.6°W
Report Text: KTPH 280856Z AUTO 36009KT 10SM CLR 02/M11 A3021 RMK AO2 SLP210 T00171111 58009
Loading
Personal Weather Stations






























Interactive Weather Map New forecast layout! Learn more

10-Day Weather Forecast

Advertisements
Track Severe Weather on mobile